Time;durP1;ratioP1;P1;durP2;ratioP2;P2;SDS_P1;SDS_P2;PMS_P1;PMS_P2;Temp;Humidity;BMP_temperature;BMP_pressure;BME280_temperature;BME280_humidity;BME280_pressure;Samples;Min_cycle;Max_cycle;Signal;HPM_P1;HPM_P2
2021/11/01 00:01:52;;;;;;;;;;;;;;;4.64;96.73;98240.59;4924080;29;19934;-85
2021/11/01 00:04:17;;;;;;;;;;;;;;;4.68;97.10;98269.28;4926185;29;19914;-85
2021/11/01 00:06:43;;;;;;;;;;;;;;;4.71;96.64;98281.44;4926351;29;19919;-85
2021/11/01 00:09:08;;;;;;;;;;;;;;;4.69;96.57;98288.50;4925764;29;19997;-85
2021/11/01 00:11:34;;;;;;;;;;;;;;;4.73;96.52;98266.47;4924916;29;19915;-85
2021/11/01 00:13:59;;;;;;;;;;;;;;;4.71;96.61;98257.81;4926005;29;19923;-85
2021/11/01 00:16:27;;;;;;;;;;;;;;;4.73;96.61;98227.09;4925941;29;19915;-84
2021/11/01 00:18:52;;;;;;;;;;;;;;;4.73;96.40;98221.84;4926960;29;20005;-85
2021/11/01 00:21:18;;;;;;;;;;;;;;;4.72;96.50;98220.13;4925267;29;20010;-85
2021/11/01 00:23:44;;;;;;;;;;;;;;;4.72;96.27;98222.75;4920940;29;19930;-86
2021/11/01 00:26:10;;;;;;;;;;;;;;;4.72;96.16;98233.25;4939152;29;19918;-86
2021/11/01 00:28:35;;;;;;;;;;;;;;;4.73;96.33;98248.94;4925193;29;20283;-85
2021/11/01 00:31:01;;;;;;;;;;;;;;;4.74;96.02;98257.69;4924980;29;19922;-86
2021/11/01 00:33:26;;;;;;;;;;;;;;;4.74;96.05;98276.03;4925296;29;19941;-85
2021/11/01 00:35:52;;;;;;;;;;;;;;;4.76;96.00;98284.69;4924700;29;20010;-85
2021/11/01 00:38:18;;;;;;;;;;;;;;;4.75;95.84;98282.97;4927025;29;20334;-85
2021/11/01 00:40:43;;;;;;;;;;;;;;;4.73;95.80;98272.53;4924394;29;19918;-87
2021/11/01 00:43:08;;;;;;;;;;;;;;;4.74;95.56;98260.31;4925556;29;20422;-85
2021/11/01 00:45:34;;;;;;;;;;;;;;;4.74;95.61;98268.16;4925436;29;20010;-86
2021/11/01 00:47:59;;;;;;;;;;;;;;;4.74;95.63;98283.91;4925742;29;19974;-86
2021/11/01 00:50:24;;;;;;;;;;;;;;;4.73;95.66;98280.41;4925501;29;20290;-86
2021/11/01 00:52:50;;;;;;;;;;;;;;;4.88;96.98;98264.94;4926278;29;20360;-86
2021/11/01 00:55:23;;;;;;;;;;;;;;;5.02;99.16;98266.94;4925125;29;19923;-86
2021/11/01 00:57:50;;;;;;;;;;;;;;;5.06;100.00;98252.78;4924793;29;19923;-86
2021/11/01 01:00:16;;;;;;;;;;;;;;;5.08;100.00;98253.56;4924721;29;19958;-86
2021/11/01 01:02:41;;;;;;;;;;;;;;;5.13;100.00;98235.81;4925831;29;19923;-86
2021/11/01 01:05:06;;;;;;;;;;;;;;;5.13;100.00;98217.44;4925467;29;20300;-86
2021/11/01 01:07:32;;;;;;;;;;;;;;;5.16;100.00;98230.44;4926898;29;19970;-87
2021/11/01 01:09:58;;;;;;;;;;;;;;;5.24;100.00;98236.19;4926290;29;20406;-87
2021/11/01 01:12:24;;;;;;;;;;;;;;;5.32;100.00;98245.50;4923560;29;20823;-86
2021/11/01 01:14:57;;;;;;;;;;;;;;;5.51;100.00;98258.63;4925922;29;19930;-86
2021/11/01 01:17:23;;;;;;;;;;;;;;;5.74;100.00;98263.63;4926747;29;19923;-85
2021/11/01 01:20:31;;;;;;;;;;;;;;;5.91;100.00;98236.56;4925744;29;19926;-85
2021/11/01 01:22:37;;;;;;;;;;;;;;;6.08;100.00;98216.50;4920964;29;19919;-86
2021/11/01 01:25:09;;;;;;;;;;;;;;;6.18;100.00;98213.34;4924836;29;20434;-85
2021/11/01 01:27:35;;;;;;;;;;;;;;;6.26;100.00;98199.81;4923590;29;19931;-85
2021/11/01 01:30:00;;;;;;;;;;;;;;;6.34;100.00;98191.53;4926029;29;19915;-84
2021/11/01 01:32:25;;;;;;;;;;;;;;;6.43;100.00;98196.31;4926330;29;19923;-85
2021/11/01 01:34:51;;;;;;;;;;;;;;;6.50;100.00;98202.13;4925968;29;19923;-85
2021/11/01 01:37:16;;;;;;;;;;;;;;;6.54;100.00;98204.50;4925521;29;19990;-86
2021/11/01 01:39:41;;;;;;;;;;;;;;;6.59;100.00;98206.91;4925776;29;20366;-84
2021/11/01 01:42:07;;;;;;;;;;;;;;;6.62;100.00;98198.88;4924034;29;19930;-85
2021/11/01 01:44:33;;;;;;;;;;;;;;;6.67;100.00;98210.00;4940021;29;20021;-84
2021/11/01 01:46:58;;;;;;;;;;;;;;;6.70;100.00;98217.72;4925879;29;20063;-86
2021/11/01 01:49:23;;;;;;;;;;;;;;;6.76;100.00;98213.91;4925889;29;19919;-84
2021/11/01 01:51:49;;;;;;;;;;;;;;;6.82;100.00;98224.13;4925781;29;19974;-83
2021/11/01 01:54:14;;;;;;;;;;;;;;;6.84;100.00;98235.41;4925491;29;19919;-84
2021/11/01 01:56:39;;;;;;;;;;;;;;;6.91;100.00;98235.97;4924229;29;19923;-85
2021/11/01 01:59:06;;;;;;;;;;;;;;;6.95;100.00;98224.31;4925582;29;19958;-84
2021/11/01 02:01:32;;;;;;;;;;;;;;;6.98;100.00;98213.63;4925419;29;19929;-84
2021/11/01 02:03:58;;;;;;;;;;;;;;;7.02;100.00;98231.00;4924638;29;19923;-84
2021/11/01 02:06:24;;;;;;;;;;;;;;;7.06;100.00;98232.50;4925531;29;20354;-84
2021/11/01 02:08:56;;;;;;;;;;;;;;;7.09;100.00;98240.25;4924458;29;19922;-84
2021/11/01 02:11:24;;;;;;;;;;;;;;;7.15;100.00;98243.47;4924090;29;20426;-85
2021/11/01 02:13:51;;;;;;;;;;;;;;;7.15;100.00;98238.22;4924517;29;19974;-84
2021/11/01 02:16:17;;;;;;;;;;;;;;;7.17;100.00;98239.84;4925875;29;19965;-85
2021/11/01 02:18:46;;;;;;;;;;;;;;;7.20;100.00;98241.47;4925744;29;19950;-85
2021/11/01 02:21:23;;;;;;;;;;;;;;;7.24;100.00;98246.50;4924700;29;20434;-85
2021/11/01 02:24:10;;;;;;;;;;;;;;;7.29;100.00;98246.22;4925165;29;20406;-84
2021/11/01 02:26:36;;;;;;;;;;;;;;;7.33;100.00;98239.88;4924122;29;19986;-84
2021/11/01 02:29:02;;;;;;;;;;;;;;;7.35;100.00;98237.16;4925151;29;20066;-84
2021/11/01 02:31:27;;;;;;;;;;;;;;;7.37;100.00;98228.25;4925740;29;20061;-84
2021/11/01 02:33:53;;;;;;;;;;;;;;;7.38;100.00;98235.19;4925480;29;20025;-84
2021/11/01 02:36:19;;;;;;;;;;;;;;;7.42;100.00;98233.25;4924342;29;19915;-84
2021/11/01 02:38:49;;;;;;;;;;;;;;;7.45;100.00;98241.84;4924010;29;20436;-84
2021/11/01 02:41:24;;;;;;;;;;;;;;;7.48;100.00;98247.88;4924067;29;20018;-84
2021/11/01 02:43:53;;;;;;;;;;;;;;;7.52;100.00;98255.53;4924069;29;19919;-84
2021/11/01 02:46:19;;;;;;;;;;;;;;;7.53;100.00;98257.25;4925527;29;20086;-84
2021/11/01 02:48:45;;;;;;;;;;;;;;;7.56;100.00;98261.47;4925471;29;20369;-84
2021/11/01 02:51:11;;;;;;;;;;;;;;;7.58;100.00;98257.00;4924409;29;20030;-84
2021/11/01 02:53:36;;;;;;;;;;;;;;;7.59;100.00;98238.44;4928349;29;19976;-85
2021/11/01 02:56:02;;;;;;;;;;;;;;;7.66;100.00;98235.47;4927571;29;19923;-84
2021/11/01 02:58:28;;;;;;;;;;;;;;;7.71;100.00;98229.00;4928675;29;20025;-84
2021/11/01 03:00:53;;;;;;;;;;;;;;;7.74;100.00;98226.19;4928934;29;20405;-84
2021/11/01 03:03:18;;;;;;;;;;;;;;;7.76;100.00;98237.50;4927522;29;19926;-84
2021/11/01 03:05:44;;;;;;;;;;;;;;;7.78;100.00;98238.25;4928791;29;20403;-84
2021/11/01 03:08:09;;;;;;;;;;;;;;;7.80;100.00;98231.13;4928712;29;19926;-84
2021/11/01 03:10:35;;;;;;;;;;;;;;;7.82;100.00;98236.31;4928743;29;19958;-84
2021/11/01 04:11:02;;;;;;;;;;;;;;;4.06;100.00;98275.38;5551267;23;19939;-82
2021/11/01 04:13:27;;;;;;;;;;;;;;;4.00;100.00;98273.84;4916180;29;20689;-83
2021/11/01 04:15:58;;;;;;;;;;;;;;;3.86;100.00;98278.78;4918339;29;20398;-83
2021/11/01 04:18:27;;;;;;;;;;;;;;;3.81;100.00;98279.84;4918034;29;19946;-83
2021/11/01 04:20:54;;;;;;;;;;;;;;;3.77;100.00;98280.84;4917913;29;19930;-85
2021/11/01 04:23:21;;;;;;;;;;;;;;;3.76;100.00;98276.53;4916809;29;20017;-83
2021/11/01 04:25:47;;;;;;;;;;;;;;;3.72;100.00;98280.19;4916807;29;19959;-83
2021/11/01 04:28:13;;;;;;;;;;;;;;;3.75;100.00;98273.97;4917763;29;20358;-84
2021/11/01 04:30:40;;;;;;;;;;;;;;;3.79;100.00;98278.19;4917796;29;20454;-83
2021/11/01 04:33:08;;;;;;;;;;;;;;;3.82;100.00;98278.91;4916676;29;19927;-83
2021/11/01 04:35:35;;;;;;;;;;;;;;;3.90;100.00;98277.75;4917704;29;19920;-84
2021/11/01 04:38:11;;;;;;;;;;;;;;;3.77;100.00;98286.09;4917698;29;20503;-84
2021/11/01 04:54:24;;;;;;;;;;;;;;;3.32;100.00;98294.81;4917510;29;20270;-85
2021/11/01 04:56:50;;;;;;;;;;;;;;;3.30;100.00;98312.31;4915942;29;19923;-85
2021/11/01 04:59:15;;;;;;;;;;;;;;;3.23;100.00;98316.94;4917237;29;19966;-85
2021/11/01 05:01:45;;;;;;;;;;;;;;;3.21;100.00;98312.69;4917302;29;20377;-85
2021/11/01 05:04:14;;;;;;;;;;;;;;;3.19;100.00;98307.50;4923190;29;19955;-85
2021/11/01 05:06:50;;;;;;;;;;;;;;;3.11;100.00;98308.66;4916388;29;19919;-85
2021/11/01 05:09:23;;;;;;;;;;;;;;;3.04;100.00;98303.66;4916748;29;19930;-84
2021/11/01 05:14:17;;;;;;;;;;;;;;;3.21;100.00;98305.66;4916949;29;20373;-83
2021/11/01 05:19:30;;;;;;;;;;;;;;;3.49;100.00;98311.66;4916845;29;20022;-83
2021/11/01 05:22:17;;;;;;;;;;;;;;;3.38;100.00;98315.53;4916987;29;19970;-83
2021/11/01 05:24:47;;;;;;;;;;;;;;;3.16;100.00;98309.34;4916105;29;20089;-84
2021/11/01 05:29:53;;;;;;;;;;;;;;;2.98;100.00;98306.47;4916805;29;19973;-87
2021/11/01 05:32:24;;;;;;;;;;;;;;;2.97;100.00;98309.16;4923028;29;20383;-84
2021/11/01 05:34:50;;;;;;;;;;;;;;;2.95;100.00;98310.97;4916635;29;19946;-84
2021/11/01 05:37:15;;;;;;;;;;;;;;;2.87;100.00;98306.00;4916569;29;20314;-84
2021/11/01 05:39:41;;;;;;;;;;;;;;;2.91;100.00;98312.84;4916448;29;19920;-85
2021/11/01 05:42:07;;;;;;;;;;;;;;;2.82;100.00;98315.78;4915435;29;19923;-84
2021/11/01 05:44:32;;;;;;;;;;;;;;;2.81;100.00;98314.06;4915663;29;19962;-84
2021/11/01 05:46:58;;;;;;;;;;;;;;;2.77;100.00;98325.56;4915210;29;19954;-84
2021/11/01 05:49:23;;;;;;;;;;;;;;;2.63;100.00;98321.66;4915126;29;20373;-84
2021/11/01 05:51:51;;;;;;;;;;;;;;;2.67;100.00;98307.56;4916388;29;19919;-85
2021/11/01 05:54:20;;;;;;;;;;;;;;;2.61;100.00;98312.16;4916428;29;19923;-84
2021/11/01 06:15:15;;;;;;;;;;;;;;;2.28;99.99;98325.44;4916310;29;19926;-85
2021/11/01 06:17:42;;;;;;;;;;;;;;;2.22;99.19;98339.56;4916100;29;19915;-84
2021/11/01 06:20:08;;;;;;;;;;;;;;;2.25;98.95;98329.03;4916005;29;19981;-84
2021/11/01 06:22:33;;;;;;;;;;;;;;;2.24;98.90;98327.31;4915836;29;19966;-84
2021/11/01 06:25:06;;;;;;;;;;;;;;;2.12;98.26;98335.53;4915172;29;19920;-84
2021/11/01 06:27:32;;;;;;;;;;;;;;;2.11;97.90;98339.06;4915471;29;19926;-83
2021/11/01 06:30:11;;;;;;;;;;;;;;;2.07;97.76;98329.59;4916089;29;19923;-84
2021/11/01 06:43:57;;;;;;;;;;;;;;;1.81;95.91;98360.00;4915890;29;20512;-86
2021/11/01 07:15:13;;;;;;;;;;;;;;;2.96;100.00;98385.97;4915690;29;19926;-86
2021/11/01 07:17:45;;;;;;;;;;;;;;;3.02;100.00;98386.59;4915573;29;19916;-86
2021/11/01 08:22:16;;;;;;;;;;;;;;;3.53;100.00;98381.34;4918170;29;19926;-84
2021/11/01 08:38:42;;;;;;;;;;;;;;;3.58;100.00;98375.00;4917884;29;20390;-84
2021/11/01 08:49:03;;;;;;;;;;;;;;;3.66;100.00;98364.25;4917281;29;19934;-83
2021/11/01 09:05:33;;;;;;;;;;;;;;;3.77;100.00;98375.19;4917206;29;19941;-84
2021/11/01 09:11:04;;;;;;;;;;;;;;;3.79;100.00;98373.34;4915089;29;19927;-84
2021/11/01 09:22:10;;;;;;;;;;;;;;;3.96;100.00;98349.13;4916912;29;20394;-84
2021/11/01 09:24:35;;;;;;;;;;;;;;;3.95;100.00;98354.44;4916900;29;19919;-84
2021/11/01 09:27:04;;;;;;;;;;;;;;;3.98;100.00;98352.53;4914372;29;19929;-84
2021/11/01 09:43:04;;;;;;;;;;;;;;;4.15;100.00;98354.50;4916922;29;20298;-84
2021/11/01 09:45:34;;;;;;;;;;;;;;;4.17;100.00;98360.53;4917005;29;20328;-84
2021/11/01 09:48:00;;;;;;;;;;;;;;;4.19;100.00;98356.06;4916637;29;19923;-83
2021/11/01 09:50:25;;;;;;;;;;;;;;;4.25;100.00;98364.63;4916573;29;20316;-84
2021/11/01 09:52:58;;;;;;;;;;;;;;;4.25;100.00;98362.84;4922283;29;19924;-83
2021/11/01 09:55:46;;;;;;;;;;;;;;;4.26;100.00;98361.97;4914671;29;19930;-83
2021/11/01 10:00:54;;;;;;;;;;;;;;;4.32;100.00;98359.09;4916382;29;19926;-83
2021/11/01 10:03:30;;;;;;;;;;;;;;;4.33;100.00;98346.81;4915602;29;19919;-83
2021/11/01 10:05:57;;;;;;;;;;;;;;;4.40;100.00;98350.88;4915909;29;19974;-84
2021/11/01 10:08:23;;;;;;;;;;;;;;;4.43;100.00;98350.78;4915584;29;20429;-84
2021/11/01 10:10:48;;;;;;;;;;;;;;;4.45;100.00;98351.59;4915114;29;20018;-84
2021/11/01 10:13:14;;;;;;;;;;;;;;;4.47;100.00;98341.88;4916132;29;19931;-83
2021/11/01 10:18:24;;;;;;;;;;;;;;;4.51;100.00;98346.06;4916270;29;20450;-83
2021/11/01 10:20:54;;;;;;;;;;;;;;;4.53;100.00;98341.63;4915886;29;19919;-84
2021/11/01 10:23:23;;;;;;;;;;;;;;;4.57;100.00;98347.59;4915559;29;20179;-83
2021/11/01 10:25:49;;;;;;;;;;;;;;;4.60;100.00;98349.25;4914737;29;19946;-84
2021/11/01 10:28:15;;;;;;;;;;;;;;;4.67;100.00;98345.44;4916110;29;20285;-83
2021/11/01 10:30:40;;;;;;;;;;;;;;;4.67;100.00;98342.81;4915939;29;19926;-83
2021/11/01 10:33:07;;;;;;;;;;;;;;;4.62;100.00;98337.75;4914622;29;19922;-83
2021/11/01 10:35:34;;;;;;;;;;;;;;;4.67;100.00;98342.81;4915789;29;19923;-83
2021/11/01 10:41:03;;;;;;;;;;;;;;;4.77;99.95;98322.28;4914254;29;19930;-83
2021/11/01 11:11:45;;;;;;;;;;;;;;;4.96;95.86;98290.84;4914198;29;19965;-83
2021/11/01 11:14:31;;;;;;;;;;;;;;;4.98;95.93;98303.00;4918384;29;19955;-83
2021/11/01 11:22:57;;;;;;;;;;;;;;;5.06;95.28;98310.53;4919011;29;19934;-84
2021/11/01 11:25:56;;;;;;;;;;;;;;;5.09;95.20;98320.91;4917985;29;19927;-83
2021/11/01 11:39:52;;;;;;;;;;;;;;;5.25;95.13;98294.81;4910333;29;19926;-83
2021/11/01 11:47:47;;;;;;;;;;;;;;;5.33;94.65;98297.09;4918881;29;19926;-83
2021/11/01 11:50:16;;;;;;;;;;;;;;;5.35;94.75;98290.00;4918326;29;19923;-83
2021/11/01 11:52:42;;;;;;;;;;;;;;;5.33;94.40;98290.06;4918244;29;19923;-83
2021/11/01 11:55:15;;;;;;;;;;;;;;;5.37;94.14;98289.00;4917220;29;19946;-83
2021/11/01 11:57:40;;;;;;;;;;;;;;;5.39;93.87;98291.56;4917798;29;20367;-83
2021/11/01 12:00:09;;;;;;;;;;;;;;;5.40;94.10;98290.63;4918391;29;19919;-83
2021/11/01 12:02:39;;;;;;;;;;;;;;;5.45;94.13;98286.88;4918432;29;20282;-84
2021/11/01 12:05:05;;;;;;;;;;;;;;;5.46;93.89;98295.63;4918312;29;19922;-83
2021/11/01 12:07:39;;;;;;;;;;;;;;;5.51;93.99;98285.75;4917776;29;19920;-83
2021/11/01 12:10:12;;;;;;;;;;;;;;;5.50;93.74;98289.28;4916674;29;20401;-83
2021/11/01 12:17:50;;;;;;;;;;;;;;;5.58;93.83;98284.53;4918129;29;19938;-83
2021/11/01 12:20:16;;;;;;;;;;;;;;;5.60;94.11;98284.44;4918046;29;19926;-83
2021/11/01 12:22:46;;;;;;;;;;;;;;;5.64;94.41;98280.78;4917327;29;19919;-83
2021/11/01 12:25:14;;;;;;;;;;;;;;;5.66;94.53;98278.91;4915294;29;19927;-83
2021/11/01 12:27:42;;;;;;;;;;;;;;;5.69;94.68;98277.94;4917812;29;20151;-83
2021/11/01 12:30:09;;;;;;;;;;;;;;;5.71;94.60;98282.19;4916605;29;19991;-84
2021/11/01 12:32:39;;;;;;;;;;;;;;;5.74;94.69;98278.56;4917894;29;19986;-83
2021/11/01 12:35:29;;;;;;;;;;;;;;;5.78;94.94;98286.22;4917949;29;19923;-84
2021/11/01 12:38:05;;;;;;;;;;;;;;;5.79;94.84;98281.81;4916597;29;20303;-84
2021/11/01 12:49:04;;;;;;;;;;;;;;;5.96;95.56;98276.63;4917230;29;20362;-83
2021/11/01 12:59:36;;;;;;;;;;;;;;;5.96;97.88;98266.13;4917429;29;19919;-83
2021/11/01 13:02:02;;;;;;;;;;;;;;;5.90;97.78;98271.63;4916066;29;19958;-83
2021/11/01 13:04:36;;;;;;;;;;;;;;;5.81;97.83;98266.84;4917459;29;19958;-83
2021/11/01 13:09:48;;;;;;;;;;;;;;;5.60;97.53;98255.53;4917224;29;19985;-83
2021/11/01 13:12:38;;;;;;;;;;;;;;;5.53;97.35;98257.63;4916035;29;19934;-83
2021/11/01 13:18:09;;;;;;;;;;;;;;;5.56;99.99;98257.47;4917293;29;19926;-84
2021/11/01 13:20:36;;;;;;;;;;;;;;;5.66;100.00;98252.63;4917014;29;19924;-83
2021/11/01 13:23:02;;;;;;;;;;;;;;;5.78;100.00;98259.94;4915742;29;20275;-83
2021/11/01 13:38:48;;;;;;;;;;;;;;;6.63;100.00;98244.44;4916687;29;19932;-83
2021/11/01 13:41:19;;;;;;;;;;;;;;;6.72;100.00;98243.97;4914183;29;19927;-83
2021/11/01 13:43:44;;;;;;;;;;;;;;;6.77;100.00;98238.47;4915456;29;19974;-83
2021/11/01 13:46:13;;;;;;;;;;;;;;;6.83;100.00;98232.88;4916627;29;19923;-83
2021/11/01 13:48:41;;;;;;;;;;;;;;;6.88;100.00;98236.97;4915819;29;20267;-83
2021/11/01 13:51:11;;;;;;;;;;;;;;;6.94;100.00;98233.19;4915339;29;19919;-83
2021/11/01 13:53:48;;;;;;;;;;;;;;;6.96;100.00;98231.31;4915318;29;19919;-83
2021/11/01 13:58:55;;;;;;;;;;;;;;;7.03;100.00;98232.66;4913963;29;20851;-83
2021/11/01 14:01:36;;;;;;;;;;;;;;;7.07;100.00;98230.75;4915056;29;19934;-84
2021/11/01 15:09:03;;;;;;;;;;;;;;;2.86;96.51;98203.13;4899241;29;19934;-83
2021/11/01 15:17:10;;;;;;;;;;;;;;;2.56;94.28;98215.56;4899967;29;19927;-83
2021/11/01 15:22:54;;;;;;;;;;;;;;;2.57;93.34;98211.16;4861643;29;19928;-83
2021/11/01 15:39:13;;;;;;;;;;;;;;;2.23;91.31;98217.56;4898230;29;19967;-83
2021/11/01 15:42:45;;;;;;;;;;;;;;;2.21;91.05;98220.25;4894340;29;20369;-83
2021/11/01 16:19:42;;;;;;;;;;;;;;;2.87;100.00;98235.38;4898742;29;19955;-84
2021/11/01 16:22:08;;;;;;;;;;;;;;;2.95;100.00;98235.09;4899151;29;20006;-84
2021/11/01 16:24:34;;;;;;;;;;;;;;;3.02;100.00;98237.44;4899064;29;20015;-86
2021/11/01 16:27:00;;;;;;;;;;;;;;;3.05;100.00;98237.31;4897062;29;19920;-83
2021/11/01 16:29:29;;;;;;;;;;;;;;;3.06;100.00;98228.56;4898819;29;20268;-84
2021/11/01 16:31:58;;;;;;;;;;;;;;;3.14;100.00;98237.88;4899266;29;20435;-84
2021/11/01 16:34:30;;;;;;;;;;;;;;;3.15;100.00;98234.38;4912449;29;20018;-83
2021/11/01 16:39:49;;;;;;;;;;;;;;;3.22;100.00;98233.22;4897594;29;19991;-84
2021/11/01 16:42:15;;;;;;;;;;;;;;;3.26;100.00;98233.03;4897302;29;19967;-83
2021/11/01 16:44:43;;;;;;;;;;;;;;;3.27;100.00;98237.38;4898360;29;19927;-84
2021/11/01 16:47:08;;;;;;;;;;;;;;;3.28;100.00;98235.59;4898526;29;19919;-83
2021/11/01 16:49:34;;;;;;;;;;;;;;;3.30;100.00;98233.78;4898463;29;20367;-83
2021/11/01 16:52:06;;;;;;;;;;;;;;;3.37;100.00;98234.41;4898266;29;19923;-83
2021/11/01 16:54:35;;;;;;;;;;;;;;;3.38;100.00;98241.34;4898103;29;19924;-84
2021/11/01 16:57:06;;;;;;;;;;;;;;;3.38;100.00;98239.59;4897224;29;20367;-84
2021/11/01 17:02:47;;;;;;;;;;;;;;;3.40;100.00;98247.41;4916362;29;19927;-83
2021/11/01 17:05:31;;;;;;;;;;;;;;;3.44;100.00;98246.34;4897154;29;19923;-84
2021/11/01 17:08:21;;;;;;;;;;;;;;;3.44;100.00;98257.66;4898280;29;19926;-84
2021/11/01 17:21:50;;;;;;;;;;;;;;;3.50;100.00;98259.22;4897079;29;19992;-84
2021/11/01 17:26:57;;;;;;;;;;;;;;;3.50;100.00;98264.44;4896648;29;20402;-83
2021/11/01 18:51:05;;;;;;;;;;;;;;;4.27;93.67;98263.16;4896592;29;19930;-84
2021/11/01 18:53:35;;;;;;;;;;;;;;;4.30;93.29;98261.25;4895327;29;19931;-84
2021/11/01 18:56:03;;;;;;;;;;;;;;;4.33;92.84;98257.66;4894029;29;19927;-85
2021/11/01 18:58:31;;;;;;;;;;;;;;;4.35;92.25;98261.91;4894789;29;19924;-85
2021/11/01 19:00:57;;;;;;;;;;;;;;;4.36;92.06;98258.38;4893302;29;19975;-86
2021/11/01 19:03:25;;;;;;;;;;;;;;;4.38;91.85;98255.69;4893926;29;20532;-85
2021/11/01 19:08:44;;;;;;;;;;;;;;;4.43;91.13;98258.13;4896305;29;19971;-85
2021/11/01 20:14:12;;;;;;;;;;;;;;;4.90;88.12;98236.88;4893460;29;20371;-85
2021/11/01 21:25:39;;;;;;;;;;;;;;;5.50;87.66;98220.13;4892239;29;19951;-84
2021/11/01 21:28:05;;;;;;;;;;;;;;;5.51;87.83;98217.44;4894302;29;20018;-85
2021/11/01 21:30:30;;;;;;;;;;;;;;;5.56;88.09;98220.69;4893887;29;20303;-86
2021/11/01 21:32:55;;;;;;;;;;;;;;;5.58;88.22;98215.38;4895960;29;19924;-87
2021/11/01 21:35:27;;;;;;;;;;;;;;;5.62;88.20;98215.16;4896941;29;19924;-86
2021/11/01 21:37:52;;;;;;;;;;;;;;;5.61;88.34;98208.19;4896240;29;19930;-85
2021/11/01 21:40:17;;;;;;;;;;;;;;;5.59;88.37;98210.03;4895102;29;20026;-86
2021/11/01 21:42:43;;;;;;;;;;;;;;;5.65;88.48;98208.91;4892638;29;19924;-85
2021/11/01 21:45:09;;;;;;;;;;;;;;;5.67;88.51;98203.56;4896077;29;20360;-86
2021/11/01 21:47:35;;;;;;;;;;;;;;;5.69;88.54;98199.94;4897685;29;20318;-86
2021/11/01 21:50:01;;;;;;;;;;;;;;;5.69;88.59;98197.31;4897260;29;19983;-86
2021/11/01 21:52:27;;;;;;;;;;;;;;;5.72;88.64;98196.31;4897401;29;19923;-86
2021/11/01 21:54:55;;;;;;;;;;;;;;;5.74;88.60;98195.28;4896466;29;19932;-87
